Terminal Aerodrome Forecast
Issued by NWS

Home | Current Version | Previous Version | Text Only | Print | Product List | Glossary Off
Versions: 1 2 3 4 5 6 7 8 9 10 11 12 13 14 15

000
FTUS42 KMHX 212331
TAFPGV
TAF
KPGV 212331Z 2200/2224 22006KT P6SM VCSH BKN050
      TEMPO 2209/2213 BKN015
     FM221400 24006KT P6SM BKN070
     FM221900 24007KT P6SM BKN100
      AMD LTD TO CLD VIS AND WIND=

USA.gov is the U.S. government's official web portal to all federal, state and local government web resources and services.